sensor_id;sensor_type;location;lat;lon;timestamp;pressure;altitude;pressure_sealevel;temperature;humidity
60061;BME280;45933;51.336;12.612;2022-08-21T00:01:19;99874.50;;;21.34;69.17
60061;BME280;45933;51.336;12.612;2022-08-21T00:03:46;99872.78;;;21.33;68.94
60061;BME280;45933;51.336;12.612;2022-08-21T00:06:11;99874.59;;;21.32;69.04
60061;BME280;45933;51.336;12.612;2022-08-21T00:08:37;99878.94;;;21.33;69.29
60061;BME280;45933;51.336;12.612;2022-08-21T00:11:03;99872.88;;;21.31;69.10
60061;BME280;45933;51.336;12.612;2022-08-21T00:13:28;99871.16;;;21.30;68.97
60061;BME280;45933;51.336;12.612;2022-08-21T00:15:54;99872.06;;;21.29;68.96
60061;BME280;45933;51.336;12.612;2022-08-21T00:18:20;99864.19;;;21.28;69.16
60061;BME280;45933;51.336;12.612;2022-08-21T00:20:46;99872.22;;;21.26;69.00
60061;BME280;45933;51.336;12.612;2022-08-21T00:23:13;99870.44;;;21.27;69.19
60061;BME280;45933;51.336;12.612;2022-08-21T00:25:39;99873.94;;;21.27;69.18
60061;BME280;45933;51.336;12.612;2022-08-21T00:28:05;99866.13;;;21.24;68.76
60061;BME280;45933;51.336;12.612;2022-08-21T00:30:32;99866.13;;;21.24;68.84
60061;BME280;45933;51.336;12.612;2022-08-21T00:32:59;99869.72;;;21.23;68.96
60061;BME280;45933;51.336;12.612;2022-08-21T00:35:30;99868.72;;;21.26;69.03
60061;BME280;45933;51.336;12.612;2022-08-21T00:37:56;99868.03;;;21.22;68.85
60061;BME280;45933;51.336;12.612;2022-08-21T00:40:26;99870.59;;;21.24;68.99
60061;BME280;45933;51.336;12.612;2022-08-21T00:42:52;99873.31;;;21.22;68.71
60061;BME280;45933;51.336;12.612;2022-08-21T00:45:18;99876.06;;;21.21;68.83
60061;BME280;45933;51.336;12.612;2022-08-21T00:47:44;99875.97;;;21.22;68.95
60061;BME280;45933;51.336;12.612;2022-08-21T00:50:10;99871.53;;;21.23;68.85
60061;BME280;45933;51.336;12.612;2022-08-21T00:52:37;99869.72;;;21.23;68.74
60061;BME280;45933;51.336;12.612;2022-08-21T00:55:05;99867.00;;;21.25;68.79
60061;BME280;45933;51.336;12.612;2022-08-21T00:57:44;99872.06;;;21.29;68.80
60061;BME280;45933;51.336;12.612;2022-08-21T01:00:15;99868.63;;;21.27;68.50
60061;BME280;45933;51.336;12.612;2022-08-21T01:02:42;99869.63;;;21.25;68.53
60061;BME280;45933;51.336;12.612;2022-08-21T01:05:07;99875.81;;;21.25;68.60
60061;BME280;45933;51.336;12.612;2022-08-21T01:07:33;99868.03;;;21.22;68.04
60061;BME280;45933;51.336;12.612;2022-08-21T01:09:59;99868.03;;;21.22;68.14
60061;BME280;45933;51.336;12.612;2022-08-21T01:12:25;99868.16;;;21.19;67.98
60061;BME280;45933;51.336;12.612;2022-08-21T01:14:51;99873.41;;;21.21;67.90
60061;BME280;45933;51.336;12.612;2022-08-21T01:17:17;99871.84;;;21.17;67.84
60061;BME280;45933;51.336;12.612;2022-08-21T01:19:43;99871.00;;;21.16;67.76
60061;BME280;45933;51.336;12.612;2022-08-21T01:22:09;99866.66;;;21.15;67.71
60061;BME280;45933;51.336;12.612;2022-08-21T01:24:35;99869.44;;;21.12;67.80
60061;BME280;45933;51.336;12.612;2022-08-21T01:27:01;99865.94;;;21.11;67.63
60061;BME280;45933;51.336;12.612;2022-08-21T01:29:32;99872.09;;;21.12;67.40
60061;BME280;45933;51.336;12.612;2022-08-21T01:32:07;99862.53;;;21.09;67.45
60061;BME280;45933;51.336;12.612;2022-08-21T01:34:34;99872.50;;;21.04;67.24
60061;BME280;45933;51.336;12.612;2022-08-21T01:37:01;99871.72;;;21.02;67.29
60061;BME280;45933;51.336;12.612;2022-08-21T01:39:27;99871.88;;;20.99;67.06
60061;BME280;45933;51.336;12.612;2022-08-21T01:41:53;99867.59;;;20.97;67.13
60061;BME280;45933;51.336;12.612;2022-08-21T01:44:22;99864.94;;;20.97;67.03
60061;BME280;45933;51.336;12.612;2022-08-21T01:46:48;99860.91;;;20.89;67.08
60061;BME280;45933;51.336;12.612;2022-08-21T01:49:14;99865.41;;;20.87;67.02
60061;BME280;45933;51.336;12.612;2022-08-21T01:51:40;99864.63;;;20.85;67.02
60061;BME280;45933;51.336;12.612;2022-08-21T01:54:06;99867.38;;;20.84;67.04
60061;BME280;45933;51.336;12.612;2022-08-21T01:56:43;99866.53;;;20.83;66.91
60061;BME280;45933;51.336;12.612;2022-08-21T01:59:08;99866.81;;;20.77;66.91
60061;BME280;45933;51.336;12.612;2022-08-21T02:01:34;99878.44;;;20.75;67.09
60061;BME280;45933;51.336;12.612;2022-08-21T02:04:00;99865.28;;;20.73;67.23
60061;BME280;45933;51.336;12.612;2022-08-21T02:06:26;99867.22;;;20.70;67.06
60061;BME280;45933;51.336;12.612;2022-08-21T02:08:52;99871.75;;;20.68;67.27
60061;BME280;45933;51.336;12.612;2022-08-21T02:11:18;99867.44;;;20.65;67.17
60061;BME280;45933;51.336;12.612;2022-08-21T02:13:44;99864.88;;;20.63;67.14
60061;BME280;45933;51.336;12.612;2022-08-21T02:16:10;99858.00;;;20.59;67.40
60061;BME280;45933;51.336;12.612;2022-08-21T02:18:36;99859.03;;;20.57;67.33
60061;BME280;45933;51.336;12.612;2022-08-21T02:21:03;99864.34;;;20.57;67.44
60061;BME280;45933;51.336;12.612;2022-08-21T02:23:28;99862.78;;;20.53;67.43
60061;BME280;45933;51.336;12.612;2022-08-21T02:25:57;99858.25;;;20.55;67.46
60061;BME280;45933;51.336;12.612;2022-08-21T02:28:22;99853.25;;;20.49;67.38
60061;BME280;45933;51.336;12.612;2022-08-21T02:30:48;99862.06;;;20.49;67.57
60061;BME280;45933;51.336;12.612;2022-08-21T02:33:14;99858.63;;;20.47;67.69
60061;BME280;45933;51.336;12.612;2022-08-21T02:35:41;99856.09;;;20.44;67.35
60061;BME280;45933;51.336;12.612;2022-08-21T02:38:11;99857.81;;;20.45;67.56
60061;BME280;45933;51.336;12.612;2022-08-21T02:40:38;99854.38;;;20.43;67.64
60061;BME280;45933;51.336;12.612;2022-08-21T02:43:06;99851.81;;;20.42;67.47
60061;BME280;45933;51.336;12.612;2022-08-21T02:45:32;99848.38;;;20.40;67.59
60061;BME280;45933;51.336;12.612;2022-08-21T02:48:00;99848.56;;;20.36;67.56
60061;BME280;45933;51.336;12.612;2022-08-21T02:50:28;99853.00;;;20.36;67.86
60061;BME280;45933;51.336;12.612;2022-08-21T02:52:55;99853.91;;;20.35;67.62
60061;BME280;45933;51.336;12.612;2022-08-21T02:55:23;99852.13;;;20.35;67.94
60061;BME280;45933;51.336;12.612;2022-08-21T02:57:49;99844.25;;;20.34;67.64
60061;BME280;45933;51.336;12.612;2022-08-21T03:00:15;99851.34;;;20.33;67.55
60061;BME280;45933;51.336;12.612;2022-08-21T03:02:41;99854.06;;;20.32;67.73
60061;BME280;45933;51.336;12.612;2022-08-21T03:05:08;99848.78;;;20.32;67.84
60061;BME280;45933;51.336;12.612;2022-08-21T03:07:37;99856.72;;;20.32;67.70
60061;BME280;45933;51.336;12.612;2022-08-21T03:10:06;99846.97;;;20.32;67.54
60061;BME280;45933;51.336;12.612;2022-08-21T03:12:31;99854.22;;;20.29;67.42
60061;BME280;45933;51.336;12.612;2022-08-21T03:14:57;99844.47;;;20.29;67.46
60061;BME280;45933;51.336;12.612;2022-08-21T03:17:23;99843.69;;;20.27;67.50
60061;BME280;45933;51.336;12.612;2022-08-21T03:19:49;99847.38;;;20.25;67.09
60061;BME280;45933;51.336;12.612;2022-08-21T03:22:14;99850.94;;;20.24;66.96
60061;BME280;45933;51.336;12.612;2022-08-21T03:24:40;99844.78;;;20.23;67.04
60061;BME280;45933;51.336;12.612;2022-08-21T03:27:05;99850.06;;;20.23;67.04
60061;BME280;45933;51.336;12.612;2022-08-21T03:29:30;99849.31;;;20.21;66.81
60061;BME280;45933;51.336;12.612;2022-08-21T03:31:56;99850.28;;;20.19;67.10
60061;BME280;45933;51.336;12.612;2022-08-21T03:34:21;99846.03;;;20.16;66.75
60061;BME280;45933;51.336;12.612;2022-08-21T03:36:48;99854.09;;;20.13;66.34
60061;BME280;45933;51.336;12.612;2022-08-21T03:39:15;99852.47;;;20.10;66.67
60061;BME280;45933;51.336;12.612;2022-08-21T03:41:40;99856.97;;;20.08;66.51
60061;BME280;45933;51.336;12.612;2022-08-21T03:44:06;99854.47;;;20.05;66.53
60061;BME280;45933;51.336;12.612;2022-08-21T03:46:32;99863.34;;;20.04;66.34
60061;BME280;45933;51.336;12.612;2022-08-21T03:48:57;99865.16;;;20.04;66.43
60061;BME280;45933;51.336;12.612;2022-08-21T03:51:23;99861.69;;;20.02;66.42
60061;BME280;45933;51.336;12.612;2022-08-21T03:53:48;99863.50;;;20.01;66.14
60061;BME280;45933;51.336;12.612;2022-08-21T03:56:13;99867.06;;;20.00;66.11
60061;BME280;45933;51.336;12.612;2022-08-21T03:58:41;99866.28;;;19.98;66.38
60061;BME280;45933;51.336;12.612;2022-08-21T04:01:06;99866.28;;;19.98;66.57
60061;BME280;45933;51.336;12.612;2022-08-21T04:03:34;99868.88;;;20.00;66.61
60061;BME280;45933;51.336;12.612;2022-08-21T04:06:00;99874.28;;;19.97;66.40
60061;BME280;45933;51.336;12.612;2022-08-21T04:08:25;99877.00;;;19.95;66.51
60061;BME280;45933;51.336;12.612;2022-08-21T04:10:53;99876.16;;;19.95;66.14
60061;BME280;45933;51.336;12.612;2022-08-21T04:13:19;99885.88;;;19.94;66.42
60061;BME280;45933;51.336;12.612;2022-08-21T04:15:45;99885.06;;;19.92;66.13
60061;BME280;45933;51.336;12.612;2022-08-21T04:18:11;99881.53;;;19.93;66.14
60061;BME280;45933;51.336;12.612;2022-08-21T04:20:36;99886.81;;;19.93;66.12
60061;BME280;45933;51.336;12.612;2022-08-21T04:23:02;99889.53;;;19.92;65.95
60061;BME280;45933;51.336;12.612;2022-08-21T04:25:28;99893.09;;;19.91;66.17
60061;BME280;45933;51.336;12.612;2022-08-21T04:27:54;99891.31;;;19.91;65.97
60061;BME280;45933;51.336;12.612;2022-08-21T04:30:20;99894.88;;;19.90;65.51
60061;BME280;45933;51.336;12.612;2022-08-21T04:32:47;99898.47;;;19.89;65.68
60061;BME280;45933;51.336;12.612;2022-08-21T04:35:14;99900.25;;;19.89;65.95
60061;BME280;45933;51.336;12.612;2022-08-21T04:37:41;99899.41;;;19.88;65.32
60061;BME280;45933;51.336;12.612;2022-08-21T04:40:07;99903.88;;;19.86;65.36
60061;BME280;45933;51.336;12.612;2022-08-21T04:42:45;99901.13;;;19.89;65.10
60061;BME280;45933;51.336;12.612;2022-08-21T04:45:16;99908.19;;;19.89;65.39
60061;BME280;45933;51.336;12.612;2022-08-21T04:47:42;99906.69;;;19.83;65.41
60061;BME280;45933;51.336;12.612;2022-08-21T04:50:08;99905.81;;;19.82;65.13
60061;BME280;45933;51.336;12.612;2022-08-21T04:52:33;99902.31;;;19.82;65.37
60061;BME280;45933;51.336;12.612;2022-08-21T04:55:00;99906.75;;;19.81;65.45
60061;BME280;45933;51.336;12.612;2022-08-21T04:57:26;99908.63;;;19.79;65.49
60061;BME280;45933;51.336;12.612;2022-08-21T04:59:52;99907.69;;;19.80;65.44
60061;BME280;45933;51.336;12.612;2022-08-21T05:02:18;99910.31;;;19.80;65.43
60061;BME280;45933;51.336;12.612;2022-08-21T05:04:50;99908.41;;;19.84;65.50
60061;BME280;45933;51.336;12.612;2022-08-21T05:07:20;99914.38;;;19.88;65.79
60061;BME280;45933;51.336;12.612;2022-08-21T05:09:46;99914.38;;;19.88;66.14
60061;BME280;45933;51.336;12.612;2022-08-21T05:12:12;99911.75;;;19.88;66.00
60061;BME280;45933;51.336;12.612;2022-08-21T05:14:38;99909.09;;;19.88;65.43
60061;BME280;45933;51.336;12.612;2022-08-21T05:17:03;99913.31;;;19.92;65.75
60061;BME280;45933;51.336;12.612;2022-08-21T05:19:29;99913.28;;;19.93;66.13
60061;BME280;45933;51.336;12.612;2022-08-21T05:21:55;99918.47;;;19.95;65.33
60061;BME280;45933;51.336;12.612;2022-08-21T05:24:20;99917.41;;;19.99;65.93
60061;BME280;45933;51.336;12.612;2022-08-21T05:26:45;99920.84;;;20.01;65.56
60061;BME280;45933;51.336;12.612;2022-08-21T05:29:11;99924.25;;;20.03;65.31
60061;BME280;45933;51.336;12.612;2022-08-21T05:31:37;99916.28;;;20.04;65.36
60061;BME280;45933;51.336;12.612;2022-08-21T05:34:03;99927.50;;;20.09;65.25
60061;BME280;45933;51.336;12.612;2022-08-21T05:36:29;99923.84;;;20.12;65.48
60061;BME280;45933;51.336;12.612;2022-08-21T05:38:54;99922.84;;;20.15;65.05
60061;BME280;45933;51.336;12.612;2022-08-21T05:41:20;99918.25;;;20.18;64.95
60061;BME280;45933;51.336;12.612;2022-08-21T05:43:45;99919.91;;;20.21;64.95
60061;BME280;45933;51.336;12.612;2022-08-21T05:46:11;99924.13;;;20.25;65.08
60061;BME280;45933;51.336;12.612;2022-08-21T05:48:36;99930.97;;;20.29;64.75
60061;BME280;45933;51.336;12.612;2022-08-21T05:51:10;99921.88;;;20.34;64.84
60061;BME280;45933;51.336;12.612;2022-08-21T05:53:36;99923.66;;;20.34;64.62
60061;BME280;45933;51.336;12.612;2022-08-21T05:56:03;99932.31;;;20.37;64.60
60061;BME280;45933;51.336;12.612;2022-08-21T05:58:29;99929.53;;;20.41;64.84
60061;BME280;45933;51.336;12.612;2022-08-21T06:00:55;99934.66;;;20.44;64.70
60061;BME280;45933;51.336;12.612;2022-08-21T06:03:23;99940.72;;;20.46;64.38
60061;BME280;45933;51.336;12.612;2022-08-21T06:05:49;99938.06;;;20.47;64.65
60061;BME280;45933;51.336;12.612;2022-08-21T06:08:16;99938.75;;;20.51;64.87
60061;BME280;45933;51.336;12.612;2022-08-21T06:10:42;99930.75;;;20.52;64.78
60061;BME280;45933;51.336;12.612;2022-08-21T06:13:07;99928.09;;;20.52;64.02
60061;BME280;45933;51.336;12.612;2022-08-21T06:15:33;99929.69;;;20.56;64.46
60061;BME280;45933;51.336;12.612;2022-08-21T06:17:58;99928.53;;;20.62;64.34
60061;BME280;45933;51.336;12.612;2022-08-21T06:20:24;99922.97;;;20.67;64.25
60061;BME280;45933;51.336;12.612;2022-08-21T06:22:49;99918.25;;;20.73;64.34
60061;BME280;45933;51.336;12.612;2022-08-21T06:25:14;99925.97;;;20.78;63.76
60061;BME280;45933;51.336;12.612;2022-08-21T06:27:40;99924.72;;;20.85;62.95
60061;BME280;45933;51.336;12.612;2022-08-21T06:30:06;99927.91;;;20.92;63.26
60061;BME280;45933;51.336;12.612;2022-08-21T06:32:32;99932.75;;;21.01;63.18
60061;BME280;45933;51.336;12.612;2022-08-21T06:34:58;99927.03;;;21.08;63.23
60061;BME280;45933;51.336;12.612;2022-08-21T06:37:23;99924.78;;;21.18;63.41
60061;BME280;45933;51.336;12.612;2022-08-21T06:39:49;99925.16;;;21.28;62.92
60061;BME280;45933;51.336;12.612;2022-08-21T06:42:15;99930.88;;;21.37;62.53
60061;BME280;45933;51.336;12.612;2022-08-21T06:44:41;99929.53;;;21.46;62.01
60061;BME280;45933;51.336;12.612;2022-08-21T06:47:07;99940.34;;;21.59;61.79
60061;BME280;45933;51.336;12.612;2022-08-21T06:49:33;99936.34;;;21.67;61.30
60061;BME280;45933;51.336;12.612;2022-08-21T06:52:00;99938.59;;;21.75;60.84
60061;BME280;45933;51.336;12.612;2022-08-21T06:54:28;99937.66;;;21.92;60.52
60061;BME280;45933;51.336;12.612;2022-08-21T06:56:55;99933.66;;;22.01;60.13
60061;BME280;45933;51.336;12.612;2022-08-21T06:59:21;99934.91;;;22.11;59.55
60061;BME280;45933;51.336;12.612;2022-08-21T07:01:46;99936.84;;;22.23;59.35
60061;BME280;45933;51.336;12.612;2022-08-21T07:04:11;99940.03;;;22.30;58.40
60061;BME280;45933;51.336;12.612;2022-08-21T07:06:37;99942.16;;;22.39;58.72
60061;BME280;45933;51.336;12.612;2022-08-21T07:09:03;99946.09;;;22.48;58.37
60061;BME280;45933;51.336;12.612;2022-08-21T07:11:28;99951.47;;;22.46;57.17
60061;BME280;45933;51.336;12.612;2022-08-21T07:13:54;99945.91;;;22.51;56.62
60061;BME280;45933;51.336;12.612;2022-08-21T07:16:21;99938.91;;;22.50;56.79
60061;BME280;45933;51.336;12.612;2022-08-21T07:18:48;99944.09;;;22.51;56.73
60061;BME280;45933;51.336;12.612;2022-08-21T07:21:14;99947.66;;;22.52;56.36
60061;BME280;45933;51.336;12.612;2022-08-21T07:23:43;99953.88;;;22.51;55.69
60061;BME280;45933;51.336;12.612;2022-08-21T07:26:09;99952.19;;;22.50;56.35
60061;BME280;45933;51.336;12.612;2022-08-21T07:28:34;99951.31;;;22.49;55.92
60061;BME280;45933;51.336;12.612;2022-08-21T07:31:01;99950.47;;;22.49;55.59
60061;BME280;45933;51.336;12.612;2022-08-21T07:33:29;99948.56;;;22.51;55.69
60061;BME280;45933;51.336;12.612;2022-08-21T07:35:55;99941.66;;;22.48;55.70
60061;BME280;45933;51.336;12.612;2022-08-21T07:38:21;99946.00;;;22.49;55.89
60061;BME280;45933;51.336;12.612;2022-08-21T07:40:47;99947.56;;;22.53;56.97
60061;BME280;45933;51.336;12.612;2022-08-21T07:43:14;99933.22;;;22.56;56.66
60061;BME280;45933;51.336;12.612;2022-08-21T07:45:43;99930.31;;;22.60;56.62
60061;BME280;45933;51.336;12.612;2022-08-21T07:48:08;99919.53;;;22.63;56.56
60061;BME280;45933;51.336;12.612;2022-08-21T07:50:35;99918.31;;;22.69;56.05
60061;BME280;45933;51.336;12.612;2022-08-21T07:53:00;99929.25;;;22.79;55.80
60061;BME280;45933;51.336;12.612;2022-08-21T07:55:26;99925.28;;;22.86;55.45
60061;BME280;45933;51.336;12.612;2022-08-21T07:57:51;99924.09;;;22.91;56.10
60061;BME280;45933;51.336;12.612;2022-08-21T08:00:20;99940.38;;;23.01;55.14
60061;BME280;45933;51.336;12.612;2022-08-21T08:02:48;99932.97;;;23.06;55.26
60061;BME280;45933;51.336;12.612;2022-08-21T08:05:19;99924.63;;;23.12;55.35
60061;BME280;45933;51.336;12.612;2022-08-21T08:07:45;99927.69;;;23.20;55.44
60061;BME280;45933;51.336;12.612;2022-08-21T08:10:11;99934.44;;;23.26;54.41
60061;BME280;45933;51.336;12.612;2022-08-21T08:12:39;99935.03;;;23.31;53.52
60061;BME280;45933;51.336;12.612;2022-08-21T08:15:07;99931.03;;;23.38;54.14
60061;BME280;45933;51.336;12.612;2022-08-21T08:17:33;99944.91;;;23.43;53.15
60061;BME280;45933;51.336;12.612;2022-08-21T08:19:59;99936.75;;;23.46;53.37
60061;BME280;45933;51.336;12.612;2022-08-21T08:22:26;99938.19;;;23.52;52.46
60061;BME280;45933;51.336;12.612;2022-08-21T08:24:52;99945.22;;;23.53;51.81
60061;BME280;45933;51.336;12.612;2022-08-21T08:27:20;99932.97;;;23.65;52.73
60061;BME280;45933;51.336;12.612;2022-08-21T08:29:46;99928.13;;;23.71;52.09
60061;BME280;45933;51.336;12.612;2022-08-21T08:32:12;99931.06;;;23.81;51.85
60061;BME280;45933;51.336;12.612;2022-08-21T08:34:38;99920.81;;;23.89;50.97
60061;BME280;45933;51.336;12.612;2022-08-21T08:37:06;99919.16;;;24.01;49.39
60061;BME280;45933;51.336;12.612;2022-08-21T08:39:32;99924.38;;;24.17;49.80
60061;BME280;45933;51.336;12.612;2022-08-21T08:44:48;99912.78;;;24.45;48.12
60061;BME280;45933;51.336;12.612;2022-08-21T08:47:16;99921.03;;;24.55;46.98
60061;BME280;45933;51.336;12.612;2022-08-21T08:52:35;99920.03;;;24.83;47.80
60061;BME280;45933;51.336;12.612;2022-08-21T08:55:07;99923.38;;;24.99;47.46
60061;BME280;45933;51.336;12.612;2022-08-21T08:57:35;99927.28;;;25.08;45.95
60061;BME280;45933;51.336;12.612;2022-08-21T09:00:05;99919.50;;;25.17;46.57
60061;BME280;45933;51.336;12.612;2022-08-21T09:02:31;99919.94;;;25.24;46.62
60061;BME280;45933;51.336;12.612;2022-08-21T09:04:59;99923.03;;;25.30;46.12
60061;BME280;45933;51.336;12.612;2022-08-21T09:11:01;99929.97;;;25.59;47.34
60061;BME280;45933;51.336;12.612;2022-08-21T09:16:18;99927.09;;;25.87;46.43
60061;BME280;45933;51.336;12.612;2022-08-21T09:19:15;99921.50;;;26.03;45.53
60061;BME280;45933;51.336;12.612;2022-08-21T09:22:02;99927.41;;;26.32;46.38
60061;BME280;45933;51.336;12.612;2022-08-21T09:24:32;99929.06;;;26.46;44.38
60061;BME280;45933;51.336;12.612;2022-08-21T09:27:10;99915.94;;;26.67;43.59
60061;BME280;45933;51.336;12.612;2022-08-21T09:29:40;99925.34;;;26.83;42.97
60061;BME280;45933;51.336;12.612;2022-08-21T09:32:17;99921.41;;;27.00;44.24
60061;BME280;45933;51.336;12.612;2022-08-21T09:35:14;99917.97;;;27.22;43.35
60061;BME280;45933;51.336;12.612;2022-08-21T09:37:51;99919.19;;;27.41;43.39
60061;BME280;45933;51.336;12.612;2022-08-21T09:42:56;99917.16;;;27.89;41.84
60061;BME280;45933;51.336;12.612;2022-08-21T09:45:22;99914.00;;;28.06;39.47
60061;BME280;45933;51.336;12.612;2022-08-21T09:47:48;99914.78;;;28.29;38.92
60061;BME280;45933;51.336;12.612;2022-08-21T09:52:46;99905.38;;;28.78;37.03
60061;BME280;45933;51.336;12.612;2022-08-21T09:55:20;99908.72;;;29.03;38.36
60061;BME280;45933;51.336;12.612;2022-08-21T09:58:05;99914.00;;;29.35;38.18
60061;BME280;45933;51.336;12.612;2022-08-21T10:00:34;99911.53;;;29.53;36.57
60061;BME280;45933;51.336;12.612;2022-08-21T10:03:12;99912.66;;;29.71;36.78
60061;BME280;45933;51.336;12.612;2022-08-21T10:05:39;99910.16;;;29.89;35.90
60061;BME280;45933;51.336;12.612;2022-08-21T10:08:16;99907.53;;;30.08;37.09
60061;BME280;45933;51.336;12.612;2022-08-21T10:10:42;99906.16;;;30.14;35.50
60061;BME280;45933;51.336;12.612;2022-08-21T10:13:26;99910.00;;;30.21;34.34
60061;BME280;45933;51.336;12.612;2022-08-21T10:19:28;99901.97;;;30.40;35.35
60061;BME280;45933;51.336;12.612;2022-08-21T10:24:37;99909.34;;;30.38;33.47
60061;BME280;45933;51.336;12.612;2022-08-21T10:30:12;99896.16;;;30.35;33.33
60061;BME280;45933;51.336;12.612;2022-08-21T10:41:09;99897.41;;;30.31;35.01
60061;BME280;45933;51.336;12.612;2022-08-21T10:44:05;99897.72;;;30.38;35.77
60061;BME280;45933;51.336;12.612;2022-08-21T10:46:56;99890.38;;;30.40;36.50
60061;BME280;45933;51.336;12.612;2022-08-21T10:49:48;99895.72;;;30.30;35.65
60061;BME280;45933;51.336;12.612;2022-08-21T10:52:34;99889.50;;;30.30;36.05
60061;BME280;45933;51.336;12.612;2022-08-21T10:55:11;99892.88;;;30.32;34.12
60061;BME280;45933;51.336;12.612;2022-08-21T10:58:00;99892.22;;;30.49;35.88
60061;BME280;45933;51.336;12.612;2022-08-21T11:00:39;99889.09;;;30.54;34.76
60061;BME280;45933;51.336;12.612;2022-08-21T11:03:20;99892.97;;;30.80;35.80
60061;BME280;45933;51.336;12.612;2022-08-21T11:08:23;99882.69;;;31.13;32.44
60061;BME280;45933;51.336;12.612;2022-08-21T11:11:05;99883.88;;;31.47;33.52
60061;BME280;45933;51.336;12.612;2022-08-21T11:13:46;99887.50;;;31.66;30.92
60061;BME280;45933;51.336;12.612;2022-08-21T11:16:43;99889.63;;;31.99;32.75
60061;BME280;45933;51.336;12.612;2022-08-21T11:19:21;99890.13;;;32.13;32.99
60061;BME280;45933;51.336;12.612;2022-08-21T11:22:00;99876.66;;;32.31;32.38
60061;BME280;45933;51.336;12.612;2022-08-21T11:24:52;99875.63;;;32.59;30.83
60061;BME280;45933;51.336;12.612;2022-08-21T11:27:24;99868.59;;;32.66;28.55
60061;BME280;45933;51.336;12.612;2022-08-21T11:29:56;99875.75;;;32.93;30.30
60061;BME280;45933;51.336;12.612;2022-08-21T11:35:17;99864.53;;;33.32;28.82
60061;BME280;45933;51.336;12.612;2022-08-21T11:38:34;99865.34;;;33.50;31.29
60061;BME280;45933;51.336;12.612;2022-08-21T11:45:55;99858.56;;;33.89;26.78
60061;BME280;45933;51.336;12.612;2022-08-21T11:50:59;99859.34;;;34.15;27.57
60061;BME280;45933;51.336;12.612;2022-08-21T11:53:37;99859.38;;;34.23;26.82
60061;BME280;45933;51.336;12.612;2022-08-21T11:56:10;99857.72;;;34.39;26.86
60061;BME280;45933;51.336;12.612;2022-08-21T11:58:43;99848.91;;;34.37;26.76
60061;BME280;45933;51.336;12.612;2022-08-21T12:01:16;99849.91;;;34.27;25.88
60061;BME280;45933;51.336;12.612;2022-08-21T12:04:03;99842.13;;;34.24;26.32
60061;BME280;45933;51.336;12.612;2022-08-21T12:06:35;99844.81;;;34.16;25.95
60061;BME280;45933;51.336;12.612;2022-08-21T12:09:06;99839.53;;;33.98;26.52
60061;BME280;45933;51.336;12.612;2022-08-21T12:11:46;99838.53;;;33.99;27.59
60061;BME280;45933;51.336;12.612;2022-08-21T12:14:14;99842.97;;;33.74;26.60
60061;BME280;45933;51.336;12.612;2022-08-21T12:16:46;99840.75;;;33.62;26.02
60061;BME280;45933;51.336;12.612;2022-08-21T12:26:54;99842.44;;;33.37;26.62
60061;BME280;45933;51.336;12.612;2022-08-21T12:32:01;99834.44;;;33.53;28.60
60061;BME280;45933;51.336;12.612;2022-08-21T12:34:40;99836.34;;;33.61;27.47
60061;BME280;45933;51.336;12.612;2022-08-21T12:40:18;99840.19;;;33.92;27.97
60061;BME280;45933;51.336;12.612;2022-08-21T12:42:50;99832.09;;;34.00;26.98
60061;BME280;45933;51.336;12.612;2022-08-21T12:45:20;99838.22;;;34.02;27.39
60061;BME280;45933;51.336;12.612;2022-08-21T12:47:52;99831.78;;;34.03;26.71
60061;BME280;45933;51.336;12.612;2022-08-21T12:50:35;99836.00;;;33.98;26.05
60061;BME280;45933;51.336;12.612;2022-08-21T12:53:09;99838.69;;;33.98;26.16
60061;BME280;45933;51.336;12.612;2022-08-21T12:55:40;99843.56;;;33.94;26.35
60061;BME280;45933;51.336;12.612;2022-08-21T12:58:06;99828.81;;;33.80;26.24
60061;BME280;45933;51.336;12.612;2022-08-21T13:00:32;99833.88;;;33.83;26.26
60061;BME280;45933;51.336;12.612;2022-08-21T13:02:58;99838.44;;;33.75;26.70
60061;BME280;45933;51.336;12.612;2022-08-21T13:05:33;99834.03;;;33.74;26.58
60061;BME280;45933;51.336;12.612;2022-08-21T13:08:04;99827.59;;;33.67;26.19
60061;BME280;45933;51.336;12.612;2022-08-21T13:10:32;99831.50;;;33.72;26.82
60061;BME280;45933;51.336;12.612;2022-08-21T13:13:04;99832.69;;;33.70;26.39
60061;BME280;45933;51.336;12.612;2022-08-21T13:15:35;99825.06;;;33.65;26.15
60061;BME280;45933;51.336;12.612;2022-08-21T13:18:02;99822.47;;;33.55;25.65
60061;BME280;45933;51.336;12.612;2022-08-21T13:20:34;99820.13;;;33.61;25.44
60061;BME280;45933;51.336;12.612;2022-08-21T13:23:02;99821.16;;;33.60;25.60
60061;BME280;45933;51.336;12.612;2022-08-21T13:25:29;99817.06;;;33.55;26.65
60061;BME280;45933;51.336;12.612;2022-08-21T13:28:10;99813.19;;;33.58;27.54
60061;BME280;45933;51.336;12.612;2022-08-21T13:33:10;99809.63;;;33.58;26.60
60061;BME280;45933;51.336;12.612;2022-08-21T13:36:03;99807.34;;;33.71;26.62
60061;BME280;45933;51.336;12.612;2022-08-21T13:38:32;99815.44;;;33.71;25.52
60061;BME280;45933;51.336;12.612;2022-08-21T13:41:03;99817.13;;;33.80;25.51
60061;BME280;45933;51.336;12.612;2022-08-21T13:43:34;99802.63;;;33.81;26.21
60061;BME280;45933;51.336;12.612;2022-08-21T13:46:02;99806.53;;;33.87;25.81
60061;BME280;45933;51.336;12.612;2022-08-21T13:48:33;99813.81;;;33.86;26.09
60061;BME280;45933;51.336;12.612;2022-08-21T13:50:59;99805.50;;;33.88;26.68
60061;BME280;45933;51.336;12.612;2022-08-21T13:56:31;99801.88;;;34.13;26.25
60061;BME280;45933;51.336;12.612;2022-08-21T13:58:59;99801.69;;;33.98;24.85
60061;BME280;45933;51.336;12.612;2022-08-21T14:01:31;99809.13;;;33.96;24.60
60061;BME280;45933;51.336;12.612;2022-08-21T14:04:04;99804.72;;;33.95;24.79
60061;BME280;45933;51.336;12.612;2022-08-21T14:06:36;99801.63;;;33.90;24.44